sensor_id;sensor_type;location;lat;lon;timestamp;temperature;humidity
26743;DHT22;14341;51.256;22.478;2023-02-28T00:00:17;-2.60;1.00
26743;DHT22;14341;51.256;22.478;2023-02-28T00:03:20;-2.60;1.00
26743;DHT22;14341;51.256;22.478;2023-02-28T00:06:24;-2.70;1.00
26743;DHT22;14341;51.256;22.478;2023-02-28T00:09:28;-2.70;1.00
26743;DHT22;14341;51.256;22.478;2023-02-28T00:12:34;-2.70;1.00
26743;DHT22;14341;51.256;22.478;2023-02-28T00:15:37;-2.70;1.00
26743;DHT22;14341;51.256;22.478;2023-02-28T00:18:41;-2.80;1.00
26743;DHT22;14341;51.256;22.478;2023-02-28T00:21:45;-2.90;1.00
26743;DHT22;14341;51.256;22.478;2023-02-28T00:24:48;-3.00;1.00
26743;DHT22;14341;51.256;22.478;2023-02-28T00:27:53;-1.70;1.00
26743;DHT22;14341;51.256;22.478;2023-02-28T00:30:56;-3.10;1.00
26743;DHT22;14341;51.256;22.478;2023-02-28T00:34:01;-3.30;1.00
26743;DHT22;14341;51.256;22.478;2023-02-28T00:37:06;-3.40;1.00
26743;DHT22;14341;51.256;22.478;2023-02-28T00:40:11;-3.50;1.00
26743;DHT22;14341;51.256;22.478;2023-02-28T00:43:15;-3.60;1.00
26743;DHT22;14341;51.256;22.478;2023-02-28T00:46:19;-3.60;1.00
26743;DHT22;14341;51.256;22.478;2023-02-28T00:49:22;-3.60;1.00
26743;DHT22;14341;51.256;22.478;2023-02-28T00:52:26;-3.00;1.00
26743;DHT22;14341;51.256;22.478;2023-02-28T00:55:29;-3.70;1.00
26743;DHT22;14341;51.256;22.478;2023-02-28T00:58:34;-3.80;1.00
26743;DHT22;14341;51.256;22.478;2023-02-28T01:01:37;-3.80;1.00
26743;DHT22;14341;51.256;22.478;2023-02-28T01:04:40;-3.80;1.00
26743;DHT22;14341;51.256;22.478;2023-02-28T01:07:44;-3.90;2.00
26743;DHT22;14341;51.256;22.478;2023-02-28T01:10:48;-3.90;14.80
26743;DHT22;14341;51.256;22.478;2023-02-28T01:13:53;-4.00;24.00
26743;DHT22;14341;51.256;22.478;2023-02-28T01:16:56;-4.00;31.70
26743;DHT22;14341;51.256;22.478;2023-02-28T01:19:59;-3.90;42.40
26743;DHT22;14341;51.256;22.478;2023-02-28T01:23:03;-4.00;50.40
26743;DHT22;14341;51.256;22.478;2023-02-28T01:26:10;-4.00;62.30
26743;DHT22;14341;51.256;22.478;2023-02-28T01:29:15;-4.20;68.20
26743;DHT22;14341;51.256;22.478;2023-02-28T01:32:19;-3.70;65.90
26743;DHT22;14341;51.256;22.478;2023-02-28T01:35:24;-4.40;75.70
26743;DHT22;14341;51.256;22.478;2023-02-28T01:38:29;-4.40;78.80
26743;DHT22;14341;51.256;22.478;2023-02-28T01:41:33;-4.50;86.80
26743;DHT22;14341;51.256;22.478;2023-02-28T01:45:14;-4.50;91.20
26743;DHT22;14341;51.256;22.478;2023-02-28T01:48:25;-4.60;94.00
26743;DHT22;14341;51.256;22.478;2023-02-28T01:51:33;-4.70;93.10
26743;DHT22;14341;51.256;22.478;2023-02-28T01:54:38;-4.70;94.70
26743;DHT22;14341;51.256;22.478;2023-02-28T01:57:45;-4.70;98.70
26743;DHT22;14341;51.256;22.478;2023-02-28T02:00:51;-4.70;99.90
26743;DHT22;14341;51.256;22.478;2023-02-28T02:03:57;-4.70;99.90
26743;DHT22;14341;51.256;22.478;2023-02-28T02:07:01;-4.70;99.90
26743;DHT22;14341;51.256;22.478;2023-02-28T02:10:11;-4.80;99.90
26743;DHT22;14341;51.256;22.478;2023-02-28T02:13:42;-4.90;99.90
26743;DHT22;14341;51.256;22.478;2023-02-28T02:17:03;-4.80;99.90
26743;DHT22;14341;51.256;22.478;2023-02-28T02:28:11;-4.90;99.90
26743;DHT22;14341;51.256;22.478;2023-02-28T02:31:48;-5.00;99.90
26743;DHT22;14341;51.256;22.478;2023-02-28T02:35:01;-5.00;99.90
26743;DHT22;14341;51.256;22.478;2023-02-28T02:38:10;-5.10;99.90
26743;DHT22;14341;51.256;22.478;2023-02-28T02:41:22;-5.10;99.90
26743;DHT22;14341;51.256;22.478;2023-02-28T02:44:31;-5.10;99.90
26743;DHT22;14341;51.256;22.478;2023-02-28T02:47:37;-5.10;99.90
26743;DHT22;14341;51.256;22.478;2023-02-28T02:50:46;-5.00;99.90
26743;DHT22;14341;51.256;22.478;2023-02-28T02:53:53;-4.90;99.90
26743;DHT22;14341;51.256;22.478;2023-02-28T02:57:04;-4.90;99.90
26743;DHT22;14341;51.256;22.478;2023-02-28T03:00:09;-4.80;99.90
26743;DHT22;14341;51.256;22.478;2023-02-28T03:03:17;-4.80;99.90
26743;DHT22;14341;51.256;22.478;2023-02-28T03:06:24;-4.80;99.90
26743;DHT22;14341;51.256;22.478;2023-02-28T03:09:27;-4.50;99.90
26743;DHT22;14341;51.256;22.478;2023-02-28T03:12:40;-4.70;99.90
26743;DHT22;14341;51.256;22.478;2023-02-28T03:15:54;-4.70;99.90
26743;DHT22;14341;51.256;22.478;2023-02-28T03:19:11;-4.70;99.90
26743;DHT22;14341;51.256;22.478;2023-02-28T03:22:33;-4.70;99.90
26743;DHT22;14341;51.256;22.478;2023-02-28T03:25:50;-4.80;99.90
26743;DHT22;14341;51.256;22.478;2023-02-28T03:29:02;-4.80;99.90
26743;DHT22;14341;51.256;22.478;2023-02-28T03:32:13;-4.90;99.90
26743;DHT22;14341;51.256;22.478;2023-02-28T03:35:24;-4.90;99.90
26743;DHT22;14341;51.256;22.478;2023-02-28T03:38:34;-4.80;99.90
26743;DHT22;14341;51.256;22.478;2023-02-28T03:41:42;-5.00;99.90
26743;DHT22;14341;51.256;22.478;2023-02-28T03:44:49;-4.90;99.90
26743;DHT22;14341;51.256;22.478;2023-02-28T03:47:56;-5.10;99.90
26743;DHT22;14341;51.256;22.478;2023-02-28T03:51:02;-5.10;99.90
26743;DHT22;14341;51.256;22.478;2023-02-28T03:54:11;-5.10;99.90
26743;DHT22;14341;51.256;22.478;2023-02-28T03:57:22;-5.20;99.90
26743;DHT22;14341;51.256;22.478;2023-02-28T04:00:30;-5.30;99.90
26743;DHT22;14341;51.256;22.478;2023-02-28T04:03:35;-5.30;99.90
26743;DHT22;14341;51.256;22.478;2023-02-28T04:06:39;-5.40;99.90
26743;DHT22;14341;51.256;22.478;2023-02-28T04:09:44;-5.50;99.90
26743;DHT22;14341;51.256;22.478;2023-02-28T04:12:47;-5.40;99.90
26743;DHT22;14341;51.256;22.478;2023-02-28T04:15:50;-5.50;99.90
26743;DHT22;14341;51.256;22.478;2023-02-28T04:18:53;-5.60;99.90
26743;DHT22;14341;51.256;22.478;2023-02-28T04:22:04;-5.60;99.90
26743;DHT22;14341;51.256;22.478;2023-02-28T04:25:08;-5.60;99.90
26743;DHT22;14341;51.256;22.478;2023-02-28T04:28:11;-5.60;99.90
26743;DHT22;14341;51.256;22.478;2023-02-28T04:31:15;-5.40;99.90
26743;DHT22;14341;51.256;22.478;2023-02-28T04:34:18;-5.40;99.90
26743;DHT22;14341;51.256;22.478;2023-02-28T04:37:22;-5.40;99.90
26743;DHT22;14341;51.256;22.478;2023-02-28T04:40:31;-5.40;99.90
26743;DHT22;14341;51.256;22.478;2023-02-28T04:43:35;-5.40;99.90
26743;DHT22;14341;51.256;22.478;2023-02-28T04:46:39;-5.40;99.90
26743;DHT22;14341;51.256;22.478;2023-02-28T04:49:42;-5.30;99.90
26743;DHT22;14341;51.256;22.478;2023-02-28T04:52:45;-5.40;99.90
26743;DHT22;14341;51.256;22.478;2023-02-28T04:55:49;-5.40;99.90
26743;DHT22;14341;51.256;22.478;2023-02-28T04:58:53;-5.40;99.90
26743;DHT22;14341;51.256;22.478;2023-02-28T05:01:56;-5.40;99.90
26743;DHT22;14341;51.256;22.478;2023-02-28T05:04:59;-5.40;99.90
26743;DHT22;14341;51.256;22.478;2023-02-28T05:08:03;-5.30;99.90
26743;DHT22;14341;51.256;22.478;2023-02-28T05:11:16;-5.30;99.90
26743;DHT22;14341;51.256;22.478;2023-02-28T05:14:19;-5.40;99.90
26743;DHT22;14341;51.256;22.478;2023-02-28T05:17:23;-5.40;99.90
26743;DHT22;14341;51.256;22.478;2023-02-28T05:20:26;-5.30;99.90
26743;DHT22;14341;51.256;22.478;2023-02-28T05:23:29;-5.40;99.90
26743;DHT22;14341;51.256;22.478;2023-02-28T05:26:36;-5.30;99.90
26743;DHT22;14341;51.256;22.478;2023-02-28T05:29:39;-5.30;99.90
26743;DHT22;14341;51.256;22.478;2023-02-28T05:32:50;-5.40;99.90
26743;DHT22;14341;51.256;22.478;2023-02-28T05:35:53;-5.30;99.90
26743;DHT22;14341;51.256;22.478;2023-02-28T05:38:56;-5.30;99.90
26743;DHT22;14341;51.256;22.478;2023-02-28T05:42:01;-5.20;99.90
26743;DHT22;14341;51.256;22.478;2023-02-28T05:45:05;-5.10;99.90
26743;DHT22;14341;51.256;22.478;2023-02-28T05:48:09;-5.10;99.90
26743;DHT22;14341;51.256;22.478;2023-02-28T05:51:13;-5.00;99.90
26743;DHT22;14341;51.256;22.478;2023-02-28T05:54:16;-5.00;99.90
26743;DHT22;14341;51.256;22.478;2023-02-28T05:57:20;-5.00;99.90
26743;DHT22;14341;51.256;22.478;2023-02-28T06:00:25;-5.00;99.90
26743;DHT22;14341;51.256;22.478;2023-02-28T06:03:29;-4.80;99.90
26743;DHT22;14341;51.256;22.478;2023-02-28T06:06:32;-4.80;99.90
26743;DHT22;14341;51.256;22.478;2023-02-28T06:09:38;-4.70;99.90
26743;DHT22;14341;51.256;22.478;2023-02-28T06:12:42;-4.60;99.90
26743;DHT22;14341;51.256;22.478;2023-02-28T06:15:45;-4.40;99.90
26743;DHT22;14341;51.256;22.478;2023-02-28T06:18:49;-4.30;99.90
26743;DHT22;14341;51.256;22.478;2023-02-28T06:21:52;-4.00;99.90
26743;DHT22;14341;51.256;22.478;2023-02-28T06:24:56;-4.00;99.90
26743;DHT22;14341;51.256;22.478;2023-02-28T06:28:00;-3.90;99.90
26743;DHT22;14341;51.256;22.478;2023-02-28T06:31:08;-3.70;99.90
26743;DHT22;14341;51.256;22.478;2023-02-28T06:34:14;-3.70;99.90
26743;DHT22;14341;51.256;22.478;2023-02-28T06:37:18;-3.60;99.90
26743;DHT22;14341;51.256;22.478;2023-02-28T06:40:21;-2.50;99.90
26743;DHT22;14341;51.256;22.478;2023-02-28T06:43:28;-3.30;99.90
26743;DHT22;14341;51.256;22.478;2023-02-28T06:46:31;-3.10;99.90
26743;DHT22;14341;51.256;22.478;2023-02-28T06:49:35;-3.10;99.90
26743;DHT22;14341;51.256;22.478;2023-02-28T06:52:39;-2.70;99.90
26743;DHT22;14341;51.256;22.478;2023-02-28T06:55:42;-2.90;99.90
26743;DHT22;14341;51.256;22.478;2023-02-28T06:58:47;-2.70;99.90
26743;DHT22;14341;51.256;22.478;2023-02-28T07:01:51;-2.80;99.90
26743;DHT22;14341;51.256;22.478;2023-02-28T07:04:54;-2.70;99.90
26743;DHT22;14341;51.256;22.478;2023-02-28T07:07:58;-2.60;99.90
26743;DHT22;14341;51.256;22.478;2023-02-28T07:11:01;-2.60;99.90
26743;DHT22;14341;51.256;22.478;2023-02-28T07:14:06;-2.50;99.90
26743;DHT22;14341;51.256;22.478;2023-02-28T07:17:10;-2.40;99.90
26743;DHT22;14341;51.256;22.478;2023-02-28T07:20:14;-2.10;99.90
26743;DHT22;14341;51.256;22.478;2023-02-28T07:23:17;-2.30;99.90
26743;DHT22;14341;51.256;22.478;2023-02-28T07:26:20;-2.20;99.90
26743;DHT22;14341;51.256;22.478;2023-02-28T07:29:25;-2.10;95.60
26743;DHT22;14341;51.256;22.478;2023-02-28T07:32:29;-2.00;92.10
26743;DHT22;14341;51.256;22.478;2023-02-28T07:35:32;-1.90;81.60
26743;DHT22;14341;51.256;22.478;2023-02-28T07:38:36;-1.90;74.00
26743;DHT22;14341;51.256;22.478;2023-02-28T07:41:39;-1.70;65.20
26743;DHT22;14341;51.256;22.478;2023-02-28T07:44:46;-1.70;61.80
26743;DHT22;14341;51.256;22.478;2023-02-28T07:47:49;-1.60;56.20
26743;DHT22;14341;51.256;22.478;2023-02-28T07:50:54;-1.20;43.80
26743;DHT22;14341;51.256;22.478;2023-02-28T07:53:58;-1.40;43.60
26743;DHT22;14341;51.256;22.478;2023-02-28T07:57:01;-1.40;37.60
26743;DHT22;14341;51.256;22.478;2023-02-28T08:00:10;-1.10;29.60
26743;DHT22;14341;51.256;22.478;2023-02-28T08:03:18;-1.20;28.40
26743;DHT22;14341;51.256;22.478;2023-02-28T08:06:23;-1.20;21.50
26743;DHT22;14341;51.256;22.478;2023-02-28T08:09:26;-1.10;10.50
26743;DHT22;14341;51.256;22.478;2023-02-28T08:12:29;-1.00;1.00
26743;DHT22;14341;51.256;22.478;2023-02-28T08:15:34;-0.70;1.00
26743;DHT22;14341;51.256;22.478;2023-02-28T08:18:38;-0.80;1.00
26743;DHT22;14341;51.256;22.478;2023-02-28T08:21:41;-0.70;1.00
26743;DHT22;14341;51.256;22.478;2023-02-28T08:24:44;-0.70;1.00
26743;DHT22;14341;51.256;22.478;2023-02-28T08:27:47;-0.60;1.00
26743;DHT22;14341;51.256;22.478;2023-02-28T08:30:54;-0.50;1.00
26743;DHT22;14341;51.256;22.478;2023-02-28T08:33:58;-0.50;1.00
26743;DHT22;14341;51.256;22.478;2023-02-28T08:37:01;-0.50;1.00
26743;DHT22;14341;51.256;22.478;2023-02-28T08:40:06;-0.20;1.00
26743;DHT22;14341;51.256;22.478;2023-02-28T08:43:09;-0.20;1.00
26743;DHT22;14341;51.256;22.478;2023-02-28T08:46:14;0.00;1.00
26743;DHT22;14341;51.256;22.478;2023-02-28T08:49:17;0.50;1.00
26743;DHT22;14341;51.256;22.478;2023-02-28T08:52:20;0.00;1.00
26743;DHT22;14341;51.256;22.478;2023-02-28T08:55:23;-0.10;1.00
26743;DHT22;14341;51.256;22.478;2023-02-28T08:58:27;0.00;1.00
26743;DHT22;14341;51.256;22.478;2023-02-28T09:01:31;0.10;1.00
26743;DHT22;14341;51.256;22.478;2023-02-28T09:04:35;0.20;1.00
26743;DHT22;14341;51.256;22.478;2023-02-28T09:07:38;0.40;1.00
26743;DHT22;14341;51.256;22.478;2023-02-28T09:10:41;0.70;1.00
26743;DHT22;14341;51.256;22.478;2023-02-28T09:13:45;0.60;1.00
26743;DHT22;14341;51.256;22.478;2023-02-28T09:16:50;0.70;1.00
26743;DHT22;14341;51.256;22.478;2023-02-28T09:19:53;0.80;1.00
26743;DHT22;14341;51.256;22.478;2023-02-28T09:22:56;0.90;1.00
26743;DHT22;14341;51.256;22.478;2023-02-28T09:26:00;0.80;1.00
26743;DHT22;14341;51.256;22.478;2023-02-28T09:29:03;0.70;1.00
26743;DHT22;14341;51.256;22.478;2023-02-28T09:32:08;1.10;1.00
26743;DHT22;14341;51.256;22.478;2023-02-28T09:35:11;1.20;1.00
26743;DHT22;14341;51.256;22.478;2023-02-28T09:38:18;1.50;1.00
26743;DHT22;14341;51.256;22.478;2023-02-28T09:41:23;1.70;1.00
26743;DHT22;14341;51.256;22.478;2023-02-28T09:44:30;1.50;1.00
26743;DHT22;14341;51.256;22.478;2023-02-28T09:47:39;1.80;1.00
26743;DHT22;14341;51.256;22.478;2023-02-28T09:50:47;2.10;1.00
26743;DHT22;14341;51.256;22.478;2023-02-28T09:53:51;2.10;1.00
26743;DHT22;14341;51.256;22.478;2023-02-28T09:57:07;2.30;99.90
26743;DHT22;14341;51.256;22.478;2023-02-28T10:00:15;2.20;99.90
26743;DHT22;14341;51.256;22.478;2023-02-28T10:03:32;2.30;1.00
26743;DHT22;14341;51.256;22.478;2023-02-28T10:06:41;2.40;99.90
26743;DHT22;14341;51.256;22.478;2023-02-28T10:09:51;2.30;99.90
26743;DHT22;14341;51.256;22.478;2023-02-28T10:12:58;2.20;99.90
26743;DHT22;14341;51.256;22.478;2023-02-28T10:16:05;2.40;99.90
26743;DHT22;14341;51.256;22.478;2023-02-28T10:19:14;2.10;99.90
26743;DHT22;14341;51.256;22.478;2023-02-28T10:22:22;2.00;99.90
26743;DHT22;14341;51.256;22.478;2023-02-28T10:25:29;1.90;99.90
26743;DHT22;14341;51.256;22.478;2023-02-28T10:28:33;2.00;99.90
26743;DHT22;14341;51.256;22.478;2023-02-28T10:31:36;2.10;99.90
26743;DHT22;14341;51.256;22.478;2023-02-28T10:34:41;2.10;99.90
26743;DHT22;14341;51.256;22.478;2023-02-28T10:37:45;2.10;99.90
26743;DHT22;14341;51.256;22.478;2023-02-28T10:40:50;2.00;99.90
26743;DHT22;14341;51.256;22.478;2023-02-28T10:44:12;2.00;99.90
26743;DHT22;14341;51.256;22.478;2023-02-28T10:47:17;2.20;99.90
26743;DHT22;14341;51.256;22.478;2023-02-28T10:50:32;2.10;99.90
26743;DHT22;14341;51.256;22.478;2023-02-28T10:53:39;2.30;99.90
26743;DHT22;14341;51.256;22.478;2023-02-28T10:57:20;2.60;99.90
26743;DHT22;14341;51.256;22.478;2023-02-28T11:00:32;2.90;99.90
26743;DHT22;14341;51.256;22.478;2023-02-28T11:03:36;3.50;99.90
26743;DHT22;14341;51.256;22.478;2023-02-28T11:06:40;3.10;99.90
26743;DHT22;14341;51.256;22.478;2023-02-28T11:09:46;3.40;99.90
26743;DHT22;14341;51.256;22.478;2023-02-28T11:12:55;3.70;99.90
26743;DHT22;14341;51.256;22.478;2023-02-28T11:16:04;3.90;99.90
26743;DHT22;14341;51.256;22.478;2023-02-28T11:19:19;4.10;99.90
26743;DHT22;14341;51.256;22.478;2023-02-28T11:22:27;4.10;99.90
26743;DHT22;14341;51.256;22.478;2023-02-28T11:25:33;4.30;99.90
26743;DHT22;14341;51.256;22.478;2023-02-28T11:28:39;4.40;99.90
26743;DHT22;14341;51.256;22.478;2023-02-28T11:31:43;4.70;99.90
26743;DHT22;14341;51.256;22.478;2023-02-28T11:35:00;4.70;99.90
26743;DHT22;14341;51.256;22.478;2023-02-28T11:38:10;5.40;99.90
26743;DHT22;14341;51.256;22.478;2023-02-28T11:41:32;5.60;99.90
26743;DHT22;14341;51.256;22.478;2023-02-28T11:45:07;5.70;99.90
26743;DHT22;14341;51.256;22.478;2023-02-28T11:48:20;5.50;99.90
26743;DHT22;14341;51.256;22.478;2023-02-28T11:51:28;5.80;99.90
26743;DHT22;14341;51.256;22.478;2023-02-28T11:55:07;5.70;99.90
26743;DHT22;14341;51.256;22.478;2023-02-28T11:58:27;6.80;99.90
26743;DHT22;14341;51.256;22.478;2023-02-28T12:01:42;6.90;99.90
26743;DHT22;14341;51.256;22.478;2023-02-28T12:04:54;6.80;99.90
26743;DHT22;14341;51.256;22.478;2023-02-28T12:08:09;7.10;99.90
26743;DHT22;14341;51.256;22.478;2023-02-28T12:11:30;7.10;99.90
26743;DHT22;14341;51.256;22.478;2023-02-28T12:14:55;6.60;99.90
26743;DHT22;14341;51.256;22.478;2023-02-28T12:18:21;6.90;99.90
26743;DHT22;14341;51.256;22.478;2023-02-28T12:21:36;7.50;99.90
26743;DHT22;14341;51.256;22.478;2023-02-28T12:25:21;6.70;99.90
26743;DHT22;14341;51.256;22.478;2023-02-28T12:28:31;6.50;99.90
26743;DHT22;14341;51.256;22.478;2023-02-28T12:31:38;6.80;99.90
26743;DHT22;14341;51.256;22.478;2023-02-28T12:34:47;6.20;99.90
26743;DHT22;14341;51.256;22.478;2023-02-28T12:37:55;6.40;99.90
26743;DHT22;14341;51.256;22.478;2023-02-28T12:41:01;5.90;99.90
26743;DHT22;14341;51.256;22.478;2023-02-28T12:44:11;5.90;99.90
26743;DHT22;14341;51.256;22.478;2023-02-28T12:47:17;6.30;99.90
26743;DHT22;14341;51.256;22.478;2023-02-28T12:50:21;6.80;99.90
26743;DHT22;14341;51.256;22.478;2023-02-28T12:53:28;6.60;99.90
26743;DHT22;14341;51.256;22.478;2023-02-28T12:56:42;6.10;99.90
26743;DHT22;14341;51.256;22.478;2023-02-28T12:59:50;5.70;99.90
26743;DHT22;14341;51.256;22.478;2023-02-28T13:03:15;5.50;99.90
26743;DHT22;14341;51.256;22.478;2023-02-28T13:06:44;4.70;99.90
26743;DHT22;14341;51.256;22.478;2023-02-28T13:09:55;4.50;99.90
26743;DHT22;14341;51.256;22.478;2023-02-28T13:13:03;4.30;99.90
26743;DHT22;14341;51.256;22.478;2023-02-28T13:16:09;4.30;99.90
26743;DHT22;14341;51.256;22.478;2023-02-28T13:19:17;4.90;99.90
26743;DHT22;14341;51.256;22.478;2023-02-28T13:22:39;5.20;99.90
26743;DHT22;14341;51.256;22.478;2023-02-28T13:25:52;5.50;99.90
26743;DHT22;14341;51.256;22.478;2023-02-28T13:29:01;4.90;99.90
26743;DHT22;14341;51.256;22.478;2023-02-28T13:32:30;4.90;99.90
26743;DHT22;14341;51.256;22.478;2023-02-28T13:35:37;5.70;99.90
26743;DHT22;14341;51.256;22.478;2023-02-28T13:38:42;5.90;99.90
26743;DHT22;14341;51.256;22.478;2023-02-28T13:41:47;4.70;99.90
26743;DHT22;14341;51.256;22.478;2023-02-28T13:45:22;5.20;99.90
26743;DHT22;14341;51.256;22.478;2023-02-28T13:48:29;5.90;99.90
26743;DHT22;14341;51.256;22.478;2023-02-28T13:51:38;6.60;99.90
26743;DHT22;14341;51.256;22.478;2023-02-28T13:54:56;6.40;99.90
26743;DHT22;14341;51.256;22.478;2023-02-28T13:58:10;6.70;99.90
26743;DHT22;14341;51.256;22.478;2023-02-28T14:01:30;7.20;99.90
26743;DHT22;14341;51.256;22.478;2023-02-28T14:04:53;7.00;99.90
26743;DHT22;14341;51.256;22.478;2023-02-28T14:08:05;6.50;99.90
26743;DHT22;14341;51.256;22.478;2023-02-28T14:11:25;5.90;99.90
26743;DHT22;14341;51.256;22.478;2023-02-28T14:14:54;6.10;99.90
26743;DHT22;14341;51.256;22.478;2023-02-28T14:18:01;5.70;99.90
26743;DHT22;14341;51.256;22.478;2023-02-28T14:21:14;5.60;99.90
26743;DHT22;14341;51.256;22.478;2023-02-28T14:24:48;5.50;99.90
26743;DHT22;14341;51.256;22.478;2023-02-28T14:28:02;5.50;99.90
26743;DHT22;14341;51.256;22.478;2023-02-28T14:31:10;4.70;99.90
26743;DHT22;14341;51.256;22.478;2023-02-28T14:34:35;4.60;99.90
26743;DHT22;14341;51.256;22.478;2023-02-28T14:37:42;4.60;99.90
26743;DHT22;14341;51.256;22.478;2023-02-28T14:40:46;4.20;99.90
26743;DHT22;14341;51.256;22.478;2023-02-28T14:43:56;4.30;99.90
26743;DHT22;14341;51.256;22.478;2023-02-28T14:47:01;4.50;99.90
26743;DHT22;14341;51.256;22.478;2023-02-28T14:50:18;4.50;99.90
26743;DHT22;14341;51.256;22.478;2023-02-28T14:53:27;4.60;99.90
26743;DHT22;14341;51.256;22.478;2023-02-28T14:56:34;4.40;99.90
26743;DHT22;14341;51.256;22.478;2023-02-28T14:59:38;4.10;99.90
26743;DHT22;14341;51.256;22.478;2023-02-28T15:02:42;3.70;99.90
26743;DHT22;14341;51.256;22.478;2023-02-28T15:05:52;3.20;99.90
26743;DHT22;14341;51.256;22.478;2023-02-28T15:09:15;3.00;99.90
26743;DHT22;14341;51.256;22.478;2023-02-28T15:12:19;2.70;99.90
26743;DHT22;14341;51.256;22.478;2023-02-28T15:15:24;2.40;99.90
26743;DHT22;14341;51.256;22.478;2023-02-28T15:18:46;2.30;1.00
26743;DHT22;14341;51.256;22.478;2023-02-28T15:21:52;2.20;1.00
26743;DHT22;14341;51.256;22.478;2023-02-28T15:24:59;2.00;1.00
26743;DHT22;14341;51.256;22.478;2023-02-28T15:28:02;1.90;1.00
26743;DHT22;14341;51.256;22.478;2023-02-28T15:31:19;1.70;1.00
26743;DHT22;14341;51.256;22.478;2023-02-28T15:34:29;1.40;1.00
26743;DHT22;14341;51.256;22.478;2023-02-28T15:37:47;1.20;1.00
26743;DHT22;14341;51.256;22.478;2023-02-28T15:40:53;1.10;1.00
26743;DHT22;14341;51.256;22.478;2023-02-28T15:47:57;0.70;1.00
26743;DHT22;14341;51.256;22.478;2023-02-28T15:51:17;0.50;1.00
26743;DHT22;14341;51.256;22.478;2023-02-28T15:54:23;0.30;1.00
26743;DHT22;14341;51.256;22.478;2023-02-28T15:57:31;0.10;1.00
26743;DHT22;14341;51.256;22.478;2023-02-28T16:00:34;0.00;1.00
26743;DHT22;14341;51.256;22.478;2023-02-28T16:03:40;-0.10;1.00
26743;DHT22;14341;51.256;22.478;2023-02-28T16:06:46;-0.20;7.50
26743;DHT22;14341;51.256;22.478;2023-02-28T16:09:51;-0.50;17.80
26743;DHT22;14341;51.256;22.478;2023-02-28T16:12:56;-0.60;24.50
26743;DHT22;14341;51.256;22.478;2023-02-28T16:16:00;-0.70;30.00
26743;DHT22;14341;51.256;22.478;2023-02-28T16:19:04;-0.90;40.90
26743;DHT22;14341;51.256;22.478;2023-02-28T16:22:08;-1.00;47.00
26743;DHT22;14341;51.256;22.478;2023-02-28T16:25:13;-1.10;50.90
26743;DHT22;14341;51.256;22.478;2023-02-28T16:28:20;-1.30;52.80
26743;DHT22;14341;51.256;22.478;2023-02-28T16:31:25;-1.30;52.20
26743;DHT22;14341;51.256;22.478;2023-02-28T16:34:29;-1.40;54.70
26743;DHT22;14341;51.256;22.478;2023-02-28T16:37:32;-1.50;58.60
26743;DHT22;14341;51.256;22.478;2023-02-28T16:40:36;-1.50;63.70
26743;DHT22;14341;51.256;22.478;2023-02-28T16:43:41;-1.50;65.80
26743;DHT22;14341;51.256;22.478;2023-02-28T16:46:46;-1.50;66.50
26743;DHT22;14341;51.256;22.478;2023-02-28T16:49:50;-1.50;69.50
26743;DHT22;14341;51.256;22.478;2023-02-28T16:52:54;-1.60;77.70
26743;DHT22;14341;51.256;22.478;2023-02-28T16:55:57;-1.70;88.20
26743;DHT22;14341;51.256;22.478;2023-02-28T16:59:05;-1.80;91.80
26743;DHT22;14341;51.256;22.478;2023-02-28T17:02:11;-1.90;92.50
26743;DHT22;14341;51.256;22.478;2023-02-28T17:05:15;-2.00;94.80
26743;DHT22;14341;51.256;22.478;2023-02-28T17:08:19;-2.10;96.60
26743;DHT22;14341;51.256;22.478;2023-02-28T17:11:24;-2.20;98.20
26743;DHT22;14341;51.256;22.478;2023-02-28T17:14:29;-2.30;99.90
26743;DHT22;14341;51.256;22.478;2023-02-28T17:17:33;-2.20;99.90
26743;DHT22;14341;51.256;22.478;2023-02-28T17:20:36;-2.30;99.90
26743;DHT22;14341;51.256;22.478;2023-02-28T17:23:40;-2.30;99.90
26743;DHT22;14341;51.256;22.478;2023-02-28T17:26:43;-2.40;99.90
26743;DHT22;14341;51.256;22.478;2023-02-28T17:29:48;-2.40;99.90
26743;DHT22;14341;51.256;22.478;2023-02-28T17:32:52;-2.60;99.90
26743;DHT22;14341;51.256;22.478;2023-02-28T17:35:56;-2.60;99.90
26743;DHT22;14341;51.256;22.478;2023-02-28T17:39:01;-2.60;99.90
26743;DHT22;14341;51.256;22.478;2023-02-28T17:42:05;-2.60;99.90
26743;DHT22;14341;51.256;22.478;2023-02-28T17:45:11;-2.70;99.90
26743;DHT22;14341;51.256;22.478;2023-02-28T17:48:15;-2.70;99.90
26743;DHT22;14341;51.256;22.478;2023-02-28T17:51:20;-2.60;99.90
26743;DHT22;14341;51.256;22.478;2023-02-28T17:54:24;-2.60;99.90
26743;DHT22;14341;51.256;22.478;2023-02-28T17:57:28;-2.60;99.90
26743;DHT22;14341;51.256;22.478;2023-02-28T18:00:32;-2.70;99.90
26743;DHT22;14341;51.256;22.478;2023-02-28T18:03:36;-2.70;99.90
26743;DHT22;14341;51.256;22.478;2023-02-28T18:06:41;-2.70;99.90
26743;DHT22;14341;51.256;22.478;2023-02-28T18:09:49;-2.70;99.90
26743;DHT22;14341;51.256;22.478;2023-02-28T18:12:53;-2.60;99.90
26743;DHT22;14341;51.256;22.478;2023-02-28T18:15:58;-2.60;99.90
26743;DHT22;14341;51.256;22.478;2023-02-28T18:19:01;-2.40;99.90
26743;DHT22;14341;51.256;22.478;2023-02-28T18:22:06;-2.70;99.90
26743;DHT22;14341;51.256;22.478;2023-02-28T18:25:10;-2.80;99.90
26743;DHT22;14341;51.256;22.478;2023-02-28T18:28:15;-3.00;99.90
26743;DHT22;14341;51.256;22.478;2023-02-28T18:31:20;-1.40;99.90
26743;DHT22;14341;51.256;22.478;2023-02-28T18:34:24;-2.90;99.90
26743;DHT22;14341;51.256;22.478;2023-02-28T18:37:27;-3.10;99.90
26743;DHT22;14341;51.256;22.478;2023-02-28T18:40:31;-3.10;99.90
26743;DHT22;14341;51.256;22.478;2023-02-28T18:43:36;-2.80;99.90
26743;DHT22;14341;51.256;22.478;2023-02-28T18:46:42;-2.80;99.90
26743;DHT22;14341;51.256;22.478;2023-02-28T18:49:45;-2.50;99.90
26743;DHT22;14341;51.256;22.478;2023-02-28T18:52:48;-2.60;99.90
26743;DHT22;14341;51.256;22.478;2023-02-28T18:55:52;-2.70;99.90
26743;DHT22;14341;51.256;22.478;2023-02-28T18:58:55;-2.70;99.90
26743;DHT22;14341;51.256;22.478;2023-02-28T19:02:00;-3.00;99.90
26743;DHT22;14341;51.256;22.478;2023-02-28T19:05:04;-2.60;99.90
26743;DHT22;14341;51.256;22.478;2023-02-28T19:08:07;-3.20;99.90
26743;DHT22;14341;51.256;22.478;2023-02-28T19:11:12;-3.30;99.90
26743;DHT22;14341;51.256;22.478;2023-02-28T19:14:16;-3.40;99.90
26743;DHT22;14341;51.256;22.478;2023-02-28T19:17:22;-3.30;99.90
26743;DHT22;14341;51.256;22.478;2023-02-28T19:20:25;-3.20;99.90
26743;DHT22;14341;51.256;22.478;2023-02-28T19:23:30;-3.10;99.90
26743;DHT22;14341;51.256;22.478;2023-02-28T19:26:34;-3.10;99.90
26743;DHT22;14341;51.256;22.478;2023-02-28T19:29:46;-3.20;99.90
26743;DHT22;14341;51.256;22.478;2023-02-28T19:33:01;-3.20;99.90
26743;DHT22;14341;51.256;22.478;2023-02-28T19:36:05;-3.00;99.90
26743;DHT22;14341;51.256;22.478;2023-02-28T19:39:08;-3.40;99.90
26743;DHT22;14341;51.256;22.478;2023-02-28T19:42:13;-3.50;99.90
26743;DHT22;14341;51.256;22.478;2023-02-28T19:45:16;-3.60;99.90
26743;DHT22;14341;51.256;22.478;2023-02-28T19:48:21;-3.30;99.90